EET,Max TemperatureF,Mean TemperatureF,Min TemperatureF,Max Dew PointF,MeanDew PointF,Min DewpointF,Max Humidity, Mean Humidity, Min Humidity, Max Sea Level PressureIn, Mean Sea Level PressureIn, Min Sea Level PressureIn, Max VisibilityMiles, Mean VisibilityMiles, Min VisibilityMiles, Max Wind SpeedMPH, Mean Wind SpeedMPH, Max Gust SpeedMPH,PrecipitationIn, CloudCover, Events, WindDirDegrees
2012-10-1,87,74,60,61,54,46,73,50,27,30.12,30.08,30.04,,,,9,5,,0.00,,,84
2012-10-2,82,71,60,64,56,46,78,55,39,30.06,30.01,29.95,6,6,6,10,5,,0.00,2,,80
2012-10-3,87,74,62,61,55,50,77,52,27,29.98,29.92,29.86,6,6,6,16,6,,0.00,1,,294
2012-10-4,84,75,64,61,53,50,77,45,32,29.98,29.94,29.89,6,6,6,12,7,,0.00,2,,354
2012-10-5,82,70,59,61,55,50,77,58,35,30.09,30.02,29.95,6,6,6,12,5,,0.00,1,,117
2012-10-6,82,71,60,55,51,46,68,49,28,30.15,30.11,30.09,6,6,6,12,4,,0.00,1,,137
2012-10-7,82,70,57,59,51,46,73,51,30,30.06,29.97,29.86,,,,10,5,,0.00,,,105
2012-10-8,84,73,62,57,46,36,64,37,26,29.92,29.84,29.80,6,6,6,18,6,,0.00,3,,347
2012-10-9,69,66,64,55,51,37,73,57,31,29.98,29.92,29.89,6,6,6,20,10,,0.00,5,,109
2012-10-10,73,66,60,61,57,54,88,75,53,29.86,29.85,29.83,6,6,4,8,3,,0.00,7,Rain-Thunderstorm,174
2012-10-11,73,66,59,61,58,55,94,73,57,29.95,29.88,29.83,6,6,6,10,4,,0.00,4,,126
2012-10-12,77,67,57,63,59,54,88,72,57,30.01,29.98,29.95,6,6,6,9,5,,0.00,3,,104
2012-10-13,80,71,62,61,57,52,88,61,37,29.98,29.94,29.89,6,6,6,8,3,,0.00,5,,63
2012-10-14,80,71,62,64,58,54,83,62,39,29.95,29.88,29.83,6,6,6,10,3,21,0.00,4,Rain,18
2012-10-15,73,65,57,59,56,52,88,72,53,30.04,29.95,29.89,6,6,6,12,5,,0.00,4,Rain,271
2012-10-16,78,68,57,64,58,54,88,72,54,30.12,30.04,29.98,6,6,6,15,4,,0.00,4,Rain,289
2012-10-17,84,72,60,66,58,54,88,64,35,30.15,30.10,30.06,6,6,6,13,4,,0.00,2,,328
2012-10-18,78,69,60,61,57,52,88,65,39,30.18,30.16,30.15,6,6,6,14,7,,0.00,1,,219
2012-10-19,77,68,57,59,56,54,88,67,47,30.24,30.18,30.12,6,6,6,15,6,,0.00,1,,304
2012-10-20,77,66,55,59,55,50,88,68,47,30.15,30.09,30.04,6,6,6,9,4,,0.00,1,,69
2012-10-21,73,65,55,57,50,45,88,61,38,30.09,30.06,30.04,6,6,6,8,4,,0.00,2,,264
2012-10-22,69,62,55,54,50,43,68,60,49,30.06,30.03,30.01,6,6,6,12,6,,0.00,5,Rain,269
2012-10-23,64,62,59,57,53,48,82,73,59,30.04,30.03,29.98,6,6,3,10,5,,0.00,6,Rain,268
2012-10-24,71,63,53,57,53,48,94,72,43,30.06,30.04,30.01,6,6,1,8,4,,0.00,4,Rain,251
2012-10-25,71,62,53,54,50,46,82,67,41,30.04,29.96,29.89,6,6,6,10,5,,0.00,1,,280
2012-10-26,73,62,50,57,49,45,82,63,41,29.92,29.86,29.80,6,6,6,8,4,,0.00,1,,211
2012-10-27,73,62,51,59,53,45,82,65,50,29.83,29.74,29.65,6,6,6,13,5,,0.00,6,,186
2012-10-28,87,74,60,59,55,45,88,51,23,29.68,29.65,29.62,6,6,6,20,9,,0.00,6,,161
2012-10-29,77,70,64,63,55,41,88,63,35,29.95,29.67,29.59,6,6,6,22,8,37,0.00,5,Rain-Thunderstorm,241
2012-10-30,71,61,51,50,39,28,77,46,20,29.95,29.83,29.71,6,6,6,16,8,,0.00,3,Rain,290
2012-10-31,68,58,48,48,41,36,77,54,35,30.01,29.97,29.92,6,6,6,8,4,,0.00,5,,317